createdAt,value
2022-07-25T00:00:26.046Z,44.69
2022-07-25T00:02:52.562Z,44.31
2022-07-25T00:05:20.422Z,44.89
2022-07-25T00:07:46.933Z,44.53
2022-07-25T00:10:13.539Z,44.73
2022-07-25T00:12:40.259Z,44.98
2022-07-25T00:15:07.277Z,44.93
2022-07-25T00:17:33.958Z,44.75
2022-07-25T00:20:00.986Z,44.78
2022-07-25T00:22:27.704Z,44.79
2022-07-25T00:24:54.284Z,44.52
2022-07-25T00:27:20.856Z,45.38
2022-07-25T00:29:47.442Z,44.39
2022-07-25T00:32:13.991Z,45.27
2022-07-25T00:34:40.531Z,45.11
2022-07-25T00:37:07.041Z,45.20
2022-07-25T00:39:33.620Z,45.26
2022-07-25T00:42:03.434Z,45.20
2022-07-25T00:44:31.951Z,45.43
2022-07-25T00:46:59.703Z,45.19
2022-07-25T00:49:26.793Z,45.44
2022-07-25T00:51:54.538Z,44.97
2022-07-25T00:54:21.956Z,45.10
2022-07-25T00:56:49.468Z,44.82
2022-07-25T00:59:17.219Z,45.56
2022-07-25T01:01:45.647Z,45.11
2022-07-25T01:04:12.394Z,45.25
2022-07-25T01:06:39.102Z,45.32
2022-07-25T01:09:05.761Z,46.03
2022-07-25T01:11:32.403Z,45.60
2022-07-25T01:13:58.976Z,45.43
2022-07-25T01:16:26.046Z,45.53
2022-07-25T01:22:11.523Z,45.35
2022-07-25T01:24:39.297Z,44.99
2022-07-25T01:27:05.979Z,44.86
2022-07-25T01:29:32.526Z,44.98
2022-07-25T01:31:59.069Z,44.72
2022-07-25T01:34:25.656Z,44.35
2022-07-25T01:36:52.202Z,44.15
2022-07-25T01:39:18.770Z,44.70
2022-07-25T01:41:45.335Z,44.54
2022-07-25T01:44:11.936Z,44.62
2022-07-25T01:46:38.682Z,44.51
2022-07-25T01:49:05.357Z,44.51
2022-07-25T01:51:32.093Z,44.46
2022-07-25T01:53:58.616Z,44.12
2022-07-25T01:56:26.371Z,44.06
2022-07-25T01:58:55.135Z,44.10
2022-07-25T02:01:22.248Z,43.69
2022-07-25T02:03:49.858Z,44.01
2022-07-25T02:06:18.082Z,43.73
2022-07-25T02:08:44.595Z,43.66
2022-07-25T02:11:11.530Z,43.61
2022-07-25T02:13:38.105Z,43.69
2022-07-25T02:16:04.874Z,43.24
2022-07-25T02:18:31.396Z,43.43
2022-07-25T02:20:57.936Z,43.66
2022-07-25T02:23:24.432Z,43.47
2022-07-25T02:25:51.025Z,43.60
2022-07-25T02:28:17.674Z,43.52
2022-07-25T02:30:44.407Z,43.46
2022-07-25T02:33:10.937Z,42.98
2022-07-25T02:35:37.485Z,42.98
2022-07-25T02:38:04.094Z,43.24
2022-07-25T02:40:30.872Z,43.33
2022-07-25T02:42:57.368Z,42.99
2022-07-25T02:45:24.092Z,43.14
2022-07-25T02:47:50.867Z,43.12
2022-07-25T02:50:17.463Z,42.91
2022-07-25T02:52:44.465Z,43.10
2022-07-25T02:55:12.005Z,42.79
2022-07-25T02:57:38.549Z,42.86
2022-07-25T03:00:07.239Z,42.91
2022-07-25T03:02:33.846Z,42.51
2022-07-25T03:05:00.475Z,42.46
2022-07-25T03:07:27.014Z,42.28
2022-07-25T03:09:53.569Z,42.62
2022-07-25T03:12:20.141Z,42.42
2022-07-25T03:14:46.667Z,42.68
2022-07-25T03:17:13.234Z,42.39
2022-07-25T03:19:39.806Z,42.62
2022-07-25T03:22:06.366Z,42.34
2022-07-25T03:24:32.960Z,42.37
2022-07-25T03:26:59.539Z,42.35
2022-07-25T03:29:26.078Z,42.05
2022-07-25T03:31:53.259Z,42.37
2022-07-25T03:34:19.833Z,42.02
2022-07-25T03:36:46.396Z,41.98
2022-07-25T03:39:14.448Z,41.92
2022-07-25T03:41:41.175Z,42.17
2022-07-25T03:44:08.529Z,41.84
2022-07-25T03:46:35.319Z,42.21
2022-07-25T03:49:02.277Z,42.12
2022-07-25T03:51:28.978Z,42.19
2022-07-25T03:54:05.618Z,42.22
2022-07-25T03:56:33.342Z,41.91
2022-07-25T03:58:59.866Z,42.26
2022-07-25T04:01:26.781Z,41.86
2022-07-25T04:03:53.643Z,42.00
2022-07-25T04:06:20.309Z,42.15
2022-07-25T04:08:47.897Z,41.84
2022-07-25T04:11:14.513Z,41.83
2022-07-25T04:13:41.146Z,41.80
2022-07-25T04:16:11.646Z,42.02
2022-07-25T04:18:41.619Z,42.21
2022-07-25T04:21:10.847Z,42.17
2022-07-25T04:23:37.398Z,42.00
2022-07-25T04:26:04.629Z,42.06
2022-07-25T04:28:32.582Z,41.94
2022-07-25T04:30:59.167Z,42.26
2022-07-25T04:33:25.957Z,42.31
2022-07-25T04:35:52.529Z,42.09
2022-07-25T04:38:19.050Z,42.15
2022-07-25T04:40:46.863Z,42.45
2022-07-25T04:43:13.825Z,42.46
2022-07-25T04:45:40.468Z,42.69
2022-07-25T04:48:07.165Z,42.21
2022-07-25T04:50:33.727Z,42.29
2022-07-25T04:53:00.461Z,42.17
2022-07-25T04:55:27.040Z,42.19
2022-07-25T04:57:53.730Z,42.20
2022-07-25T05:00:20.363Z,42.35
2022-07-25T05:02:46.891Z,42.10
2022-07-25T05:05:21.718Z,42.17
2022-07-25T05:07:49.451Z,42.13
2022-07-25T05:10:15.959Z,42.07
2022-07-25T05:12:42.497Z,42.43
2022-07-25T05:15:09.813Z,42.20
2022-07-25T05:17:36.382Z,42.07
2022-07-25T05:20:03.680Z,42.33
2022-07-25T05:22:30.291Z,42.10
2022-07-25T05:24:56.855Z,42.05
2022-07-25T05:27:23.485Z,42.30
2022-07-25T05:29:49.999Z,42.45
2022-07-25T05:32:16.619Z,42.46
2022-07-25T05:34:43.131Z,42.12
2022-07-25T05:37:09.731Z,42.43
2022-07-25T05:39:37.506Z,42.42
2022-07-25T05:42:04.079Z,42.59
2022-07-25T05:44:30.766Z,42.38
2022-07-25T05:46:57.462Z,42.49
2022-07-25T05:49:24.134Z,42.21
2022-07-25T05:51:52.124Z,42.62
2022-07-25T05:54:18.676Z,42.66
2022-07-25T05:56:45.382Z,42.51
2022-07-25T05:59:11.986Z,42.42
2022-07-25T06:01:38.596Z,42.14
2022-07-25T06:04:05.502Z,42.26
2022-07-25T06:06:32.809Z,42.47
2022-07-25T06:08:59.376Z,42.25
2022-07-25T06:11:31.019Z,42.47
2022-07-25T06:13:58.349Z,42.50
2022-07-25T06:16:25.241Z,42.28
2022-07-25T06:18:52.515Z,41.97
2022-07-25T06:21:19.085Z,42.17
2022-07-25T06:23:45.656Z,42.22
2022-07-25T06:26:12.230Z,42.28
2022-07-25T06:28:38.838Z,42.15
2022-07-25T06:31:05.522Z,42.43
2022-07-25T06:33:32.086Z,42.45
2022-07-25T06:35:58.622Z,41.83
2022-07-25T06:38:25.132Z,42.23
2022-07-25T06:40:52.779Z,42.61
2022-07-25T06:43:19.315Z,42.18
2022-07-25T06:45:47.595Z,42.07
2022-07-25T06:48:17.774Z,41.91
2022-07-25T06:50:45.042Z,41.84
2022-07-25T06:53:12.004Z,41.60
2022-07-25T06:55:38.647Z,41.82
2022-07-25T06:58:05.540Z,41.81
2022-07-25T07:00:32.127Z,41.91
2022-07-25T07:03:01.618Z,41.88
2022-07-25T07:05:30.956Z,41.69
2022-07-25T07:07:58.529Z,41.87
2022-07-25T07:10:25.995Z,41.99
2022-07-25T07:13:09.803Z,41.83
2022-07-25T07:15:37.154Z,42.00
2022-07-25T07:18:05.674Z,42.06
2022-07-25T07:20:32.238Z,41.84
2022-07-25T07:22:58.737Z,42.20
2022-07-25T07:25:28.558Z,42.54
2022-07-25T07:27:55.357Z,42.56
2022-07-25T07:30:24.801Z,42.31
2022-07-25T07:32:56.396Z,42.31
2022-07-25T07:35:23.288Z,41.68
2022-07-25T07:37:49.804Z,42.09
2022-07-25T07:40:17.184Z,42.03
2022-07-25T07:42:50.370Z,41.33
2022-07-25T07:45:22.758Z,41.45
2022-07-25T07:47:51.414Z,41.37
2022-07-25T07:50:24.964Z,41.00
2022-07-25T07:52:52.728Z,40.92
2022-07-25T07:55:37.833Z,40.71
2022-07-25T07:58:05.020Z,40.31
2022-07-25T08:00:32.104Z,40.16
2022-07-25T08:03:00.251Z,39.71
2022-07-25T08:05:31.680Z,39.46
2022-07-25T08:07:58.715Z,39.73
2022-07-25T08:10:30.629Z,39.42
2022-07-25T08:12:58.468Z,39.17
2022-07-25T08:15:26.099Z,39.46
2022-07-25T08:17:53.050Z,39.26
2022-07-25T08:20:37.550Z,39.27
2022-07-25T08:23:05.219Z,39.17
2022-07-25T08:25:31.794Z,38.71
2022-07-25T08:27:59.241Z,38.62
2022-07-25T08:30:25.750Z,39.08
2022-07-25T08:32:57.849Z,38.83
2022-07-25T08:35:25.727Z,38.79
2022-07-25T08:37:52.836Z,38.83
2022-07-25T08:40:22.188Z,38.60
2022-07-25T08:42:49.294Z,38.82
2022-07-25T08:45:18.075Z,38.69
2022-07-25T08:47:46.182Z,38.08
2022-07-25T08:50:16.055Z,38.51
2022-07-25T08:52:43.830Z,37.86
2022-07-25T08:55:16.957Z,37.88
2022-07-25T08:57:44.078Z,38.41
2022-07-25T09:00:16.242Z,38.23
2022-07-25T09:02:43.182Z,37.61
2022-07-25T09:05:10.023Z,37.23
2022-07-25T09:07:41.340Z,37.38
2022-07-25T09:10:17.000Z,37.46
2022-07-25T09:12:53.328Z,36.83
2022-07-25T09:15:30.653Z,37.90
2022-07-25T09:18:00.716Z,38.08
2022-07-25T09:20:49.280Z,38.08
2022-07-25T09:23:33.083Z,38.28
2022-07-25T09:26:06.829Z,38.32
2022-07-25T09:28:46.283Z,38.59
2022-07-25T09:31:13.911Z,38.43
2022-07-25T09:33:48.097Z,38.10
2022-07-25T09:36:15.183Z,38.14
2022-07-25T09:38:55.263Z,37.85
2022-07-25T09:41:22.225Z,38.05
2022-07-25T09:43:48.734Z,37.99
2022-07-25T09:46:15.373Z,37.93
2022-07-25T09:48:45.244Z,38.02
2022-07-25T09:51:12.287Z,37.24
2022-07-25T09:53:39.950Z,36.74
2022-07-25T09:56:08.450Z,37.03
2022-07-25T09:58:35.020Z,37.03
2022-07-25T10:01:05.169Z,36.59
2022-07-25T10:03:52.019Z,36.86
2022-07-25T10:06:30.308Z,36.64
2022-07-25T10:08:57.355Z,36.09
2022-07-25T10:11:26.315Z,36.55
2022-07-25T10:13:54.603Z,36.58
2022-07-25T10:16:23.860Z,35.88
2022-07-25T10:18:56.482Z,34.80
2022-07-25T10:21:27.391Z,36.35
2022-07-25T10:24:03.548Z,35.47
2022-07-25T10:26:31.098Z,35.71
2022-07-25T10:28:58.570Z,35.62
2022-07-25T10:31:43.864Z,35.46
2022-07-25T10:34:15.877Z,34.84
2022-07-25T10:36:49.406Z,34.52
2022-07-25T10:39:18.444Z,34.56
2022-07-25T10:41:51.842Z,34.55
2022-07-25T10:44:18.412Z,35.78
2022-07-25T10:46:45.111Z,35.01
2022-07-25T10:49:31.959Z,34.52
2022-07-25T10:52:00.891Z,34.50
2022-07-25T10:54:34.660Z,34.07
2022-07-25T10:57:01.974Z,34.19
2022-07-25T10:59:36.197Z,34.13
2022-07-25T11:02:05.456Z,34.25
2022-07-25T11:04:32.860Z,34.34
2022-07-25T11:07:11.980Z,34.24
2022-07-25T11:09:39.550Z,33.88
2022-07-25T11:12:06.477Z,33.85
2022-07-25T11:14:41.857Z,34.43
2022-07-25T11:17:11.384Z,35.42
2022-07-25T11:19:37.896Z,35.09
2022-07-25T11:22:04.875Z,34.41
2022-07-25T11:24:43.261Z,34.57
2022-07-25T11:27:13.598Z,33.77
2022-07-25T11:29:40.968Z,33.35
2022-07-25T11:32:12.074Z,31.99
2022-07-25T11:34:52.272Z,31.89
2022-07-25T11:37:20.141Z,31.69
2022-07-25T11:39:48.063Z,30.94
2022-07-25T11:42:17.642Z,30.90
2022-07-25T11:44:48.171Z,30.49
2022-07-25T11:47:29.578Z,31.07
2022-07-25T11:49:59.436Z,30.90
2022-07-25T11:52:30.223Z,31.03
2022-07-25T11:55:00.628Z,30.54
2022-07-25T11:57:30.740Z,30.88
2022-07-25T12:00:00.150Z,30.36
2022-07-25T12:02:35.391Z,30.73
2022-07-25T12:05:08.047Z,30.42
2022-07-25T12:07:51.082Z,30.30
2022-07-25T12:10:21.748Z,30.58
2022-07-25T12:12:54.621Z,30.97
2022-07-25T12:15:26.779Z,30.83
2022-07-25T12:17:55.583Z,31.62
2022-07-25T12:20:24.768Z,31.14
2022-07-25T12:22:53.418Z,31.77
2022-07-25T12:25:20.279Z,32.47
2022-07-25T12:27:47.253Z,32.73
2022-07-25T12:30:14.803Z,33.37
2022-07-25T12:32:42.397Z,32.85
2022-07-25T12:35:11.409Z,32.51
2022-07-25T12:37:38.671Z,32.22
2022-07-25T12:40:06.493Z,31.67
2022-07-25T12:42:33.077Z,31.41
2022-07-25T12:44:59.721Z,30.70
2022-07-25T12:47:28.274Z,30.61
2022-07-25T12:49:55.028Z,31.11
2022-07-25T12:52:22.194Z,31.00
2022-07-25T12:54:49.056Z,31.28
2022-07-25T12:57:16.955Z,31.30
2022-07-25T12:59:43.668Z,30.98
2022-07-25T13:02:10.243Z,31.04
2022-07-25T13:04:36.752Z,31.40
2022-07-25T13:07:03.586Z,31.50
2022-07-25T13:09:30.250Z,31.98
2022-07-25T13:11:57.666Z,31.81
2022-07-25T13:14:24.600Z,32.31
2022-07-25T13:16:51.339Z,32.62
2022-07-25T13:19:18.509Z,32.18
2022-07-25T13:21:45.058Z,31.95
2022-07-25T13:24:12.088Z,31.91
2022-07-25T13:26:39.316Z,31.87
2022-07-25T13:29:09.555Z,32.04
2022-07-25T13:31:41.062Z,31.97
2022-07-25T13:34:08.489Z,31.97
2022-07-25T13:36:36.765Z,32.71
2022-07-25T13:39:04.799Z,32.79
2022-07-25T13:41:32.107Z,32.75
2022-07-25T13:43:58.779Z,33.04
2022-07-25T13:46:25.788Z,33.51
2022-07-25T13:48:53.062Z,33.77
2022-07-25T13:51:19.653Z,33.41
2022-07-25T13:53:46.246Z,34.20
2022-07-25T13:56:13.570Z,33.86
2022-07-25T13:58:40.880Z,33.88
2022-07-25T14:01:08.485Z,34.06
2022-07-25T14:03:36.900Z,34.40
2022-07-25T14:06:04.548Z,34.50
2022-07-25T14:08:31.266Z,34.24
2022-07-25T14:10:57.926Z,34.46
2022-07-25T14:13:24.575Z,34.30
2022-07-25T14:15:51.162Z,34.29
2022-07-25T14:18:17.750Z,34.40
2022-07-25T14:20:44.320Z,34.14
2022-07-25T14:23:10.880Z,34.39
2022-07-25T14:25:38.080Z,34.32
2022-07-25T14:28:05.043Z,34.24
2022-07-25T14:30:31.672Z,33.68
2022-07-25T14:32:58.237Z,33.50
2022-07-25T14:35:30.259Z,33.36
2022-07-25T14:37:58.764Z,33.62
2022-07-25T14:40:25.417Z,33.48
2022-07-25T14:42:52.032Z,33.19
2022-07-25T14:45:18.967Z,33.28
2022-07-25T14:47:45.474Z,33.17
2022-07-25T14:50:12.043Z,32.78
2022-07-25T14:52:38.618Z,32.49
2022-07-25T14:55:05.916Z,32.51
2022-07-25T14:57:32.469Z,32.42
2022-07-25T15:00:01.892Z,32.85
2022-07-25T15:02:28.603Z,33.07
2022-07-25T15:04:55.414Z,33.53
2022-07-25T15:07:22.138Z,34.24
2022-07-25T15:09:48.659Z,33.99
2022-07-25T15:12:17.122Z,34.17
2022-07-25T15:14:43.937Z,34.52
2022-07-25T15:17:10.733Z,34.84
2022-07-25T15:19:37.298Z,34.88
2022-07-25T15:22:03.953Z,34.63
2022-07-25T15:24:36.335Z,35.09
2022-07-25T15:27:10.884Z,34.77
2022-07-25T15:29:37.398Z,35.15
2022-07-25T15:32:05.563Z,35.58
2022-07-25T15:34:33.486Z,35.56
2022-07-25T15:37:00.026Z,35.94
2022-07-25T15:39:26.504Z,36.00
2022-07-25T15:41:53.110Z,36.39
2022-07-25T15:44:19.699Z,36.61
2022-07-25T15:46:46.437Z,36.29
2022-07-25T15:49:15.023Z,36.89
2022-07-25T15:51:41.614Z,37.14
2022-07-25T15:54:08.211Z,37.24
2022-07-25T15:56:34.784Z,37.59
2022-07-25T15:59:01.389Z,37.31
2022-07-25T16:01:27.934Z,37.17
2022-07-25T16:03:59.797Z,37.42
2022-07-25T16:06:27.583Z,37.27
2022-07-25T16:08:54.215Z,37.27
2022-07-25T16:11:20.715Z,37.46
2022-07-25T16:13:47.335Z,37.45
2022-07-25T16:16:14.718Z,37.89
2022-07-25T16:18:41.432Z,37.82
2022-07-25T16:21:07.964Z,37.79
2022-07-25T16:23:38.478Z,37.53
2022-07-25T16:26:08.534Z,37.78
2022-07-25T16:28:36.358Z,37.18
2022-07-25T16:31:03.287Z,37.31
2022-07-25T16:33:29.841Z,37.16
2022-07-25T16:35:57.341Z,37.19
2022-07-25T16:38:24.065Z,37.25
2022-07-25T16:40:50.549Z,37.61
2022-07-25T16:43:17.066Z,37.05
2022-07-25T16:45:43.633Z,37.02
2022-07-25T16:48:10.170Z,36.35
2022-07-25T16:50:36.725Z,36.05
2022-07-25T16:53:03.365Z,35.92
2022-07-25T16:55:29.907Z,35.51
2022-07-25T16:57:58.672Z,35.49
2022-07-25T17:00:25.188Z,35.81
2022-07-25T17:02:51.748Z,35.63
2022-07-25T17:05:18.464Z,35.71
2022-07-25T17:07:45.911Z,36.28
2022-07-25T17:10:12.571Z,36.27
2022-07-25T17:12:39.099Z,36.68
2022-07-25T17:15:06.316Z,36.83
2022-07-25T17:17:34.017Z,37.11
2022-07-25T17:20:00.603Z,37.23
2022-07-25T17:22:27.181Z,36.90
2022-07-25T17:24:53.783Z,37.59
2022-07-25T17:27:20.299Z,37.75
2022-07-25T17:29:46.860Z,38.02
2022-07-25T17:32:13.365Z,37.83
2022-07-25T17:34:39.968Z,38.31
2022-07-25T17:37:07.731Z,38.43
2022-07-25T17:39:34.715Z,38.45
2022-07-25T17:42:01.751Z,38.95
2022-07-25T17:44:28.305Z,38.90
2022-07-25T17:46:55.684Z,39.26
2022-07-25T17:49:22.404Z,39.15
2022-07-25T17:51:49.029Z,38.94
2022-07-25T17:54:15.600Z,39.28
2022-07-25T17:56:42.275Z,39.13
2022-07-25T17:59:09.005Z,39.06
2022-07-25T18:01:35.687Z,38.95
2022-07-25T18:04:02.465Z,38.87
2022-07-25T18:06:30.076Z,38.80
2022-07-25T18:08:57.190Z,39.02
2022-07-25T18:11:23.830Z,39.03
2022-07-25T18:13:50.361Z,39.08
2022-07-25T18:16:17.403Z,39.01
2022-07-25T18:18:44.093Z,38.80
2022-07-25T18:21:10.611Z,38.58
2022-07-25T18:23:37.151Z,38.29
2022-07-25T18:26:04.067Z,38.09
2022-07-25T18:28:30.710Z,38.06
2022-07-25T18:30:57.323Z,37.92
2022-07-25T18:33:24.007Z,37.68
2022-07-25T18:35:51.462Z,37.51
2022-07-25T18:38:18.655Z,37.65
2022-07-25T18:40:45.430Z,37.66
2022-07-25T18:43:12.492Z,37.43
2022-07-25T18:45:39.565Z,37.58
2022-07-25T18:48:06.721Z,37.40
2022-07-25T18:50:33.398Z,37.36
2022-07-25T18:53:00.157Z,37.37
2022-07-25T18:55:26.682Z,37.21
2022-07-25T18:57:53.189Z,37.39
2022-07-25T19:00:19.804Z,37.11
2022-07-25T19:02:46.395Z,37.13
2022-07-25T19:05:13.368Z,36.92
2022-07-25T19:07:40.061Z,36.67
2022-07-25T19:10:07.923Z,36.76
2022-07-25T19:12:34.414Z,37.08
2022-07-25T19:15:00.947Z,36.83
2022-07-25T19:17:27.460Z,36.89
2022-07-25T19:19:54.082Z,36.95
2022-07-25T19:22:20.955Z,37.01
2022-07-25T19:24:47.482Z,36.87
2022-07-25T19:27:14.161Z,37.03
2022-07-25T19:29:42.516Z,37.00
2022-07-25T19:32:09.159Z,37.29
2022-07-25T19:34:35.741Z,37.00
2022-07-25T19:37:02.608Z,37.44
2022-07-25T19:39:29.174Z,37.23
2022-07-25T19:41:55.735Z,37.73
2022-07-25T19:44:22.374Z,37.75
2022-07-25T19:46:49.565Z,37.94
2022-07-25T19:49:16.259Z,37.61
2022-07-25T19:51:42.922Z,37.96
2022-07-25T19:54:10.013Z,38.12
2022-07-25T19:56:36.933Z,38.32
2022-07-25T19:59:03.935Z,38.75
2022-07-25T20:01:34.176Z,38.73
2022-07-25T20:04:00.988Z,38.50
2022-07-25T20:06:27.747Z,38.86
2022-07-25T20:08:54.273Z,39.20
2022-07-25T20:11:20.800Z,39.34
2022-07-25T20:13:47.483Z,39.31
2022-07-25T20:16:14.159Z,39.20
2022-07-25T20:18:40.881Z,39.44
2022-07-25T20:21:07.970Z,39.55
2022-07-25T20:23:34.522Z,39.28
2022-07-25T20:26:02.315Z,39.70
2022-07-25T20:28:29.098Z,39.28
2022-07-25T20:30:55.989Z,39.44
2022-07-25T20:33:26.892Z,39.68
2022-07-25T20:35:54.910Z,39.51
2022-07-25T20:38:32.397Z,39.91
2022-07-25T20:41:00.402Z,39.90
2022-07-25T20:43:27.167Z,39.64
2022-07-25T20:45:53.948Z,39.69
2022-07-25T20:48:20.593Z,39.80
2022-07-25T20:50:47.133Z,39.90
2022-07-25T20:53:13.864Z,40.00
2022-07-25T20:55:40.476Z,40.19
2022-07-25T20:58:07.041Z,40.23
2022-07-25T21:00:33.707Z,40.00
2022-07-25T21:03:01.376Z,40.24
2022-07-25T21:05:28.472Z,40.38
2022-07-25T21:07:55.541Z,40.58
2022-07-25T21:10:22.305Z,40.03
2022-07-25T21:12:48.952Z,40.08
2022-07-25T21:15:15.783Z,39.99
2022-07-25T21:17:42.370Z,39.84
2022-07-25T21:20:11.258Z,39.97
2022-07-25T21:22:38.193Z,40.02
2022-07-25T21:25:05.795Z,40.04
2022-07-25T21:27:32.357Z,39.94
2022-07-25T21:29:59.206Z,40.07
2022-07-25T21:32:25.832Z,40.04
2022-07-25T21:34:52.406Z,40.53
2022-07-25T21:37:19.043Z,40.76
2022-07-25T21:39:45.665Z,40.52
2022-07-25T21:42:12.241Z,40.84
2022-07-25T21:44:40.596Z,40.72
2022-07-25T21:47:07.881Z,40.88
2022-07-25T21:49:53.397Z,40.96
2022-07-25T21:52:30.309Z,41.31
2022-07-25T21:55:02.591Z,41.49
2022-07-25T21:57:29.091Z,41.63
2022-07-25T21:59:55.778Z,41.37
2022-07-25T22:02:23.431Z,41.29
2022-07-25T22:04:50.344Z,41.74
2022-07-25T22:07:17.462Z,41.78
2022-07-25T22:09:44.391Z,41.91
2022-07-25T22:12:10.968Z,42.25
2022-07-25T22:14:38.184Z,42.33
2022-07-25T22:17:05.662Z,42.28
2022-07-25T22:19:32.288Z,42.48
2022-07-25T22:21:58.818Z,42.52
2022-07-25T22:24:25.388Z,42.58
2022-07-25T22:26:51.954Z,42.49
2022-07-25T22:29:18.500Z,42.76
2022-07-25T22:31:45.371Z,42.54
2022-07-25T22:34:11.872Z,42.67
2022-07-25T22:36:38.456Z,43.08
2022-07-25T22:39:05.338Z,43.21
2022-07-25T22:41:32.155Z,43.25
2022-07-25T22:44:00.095Z,43.05
2022-07-25T22:46:28.630Z,42.94
2022-07-25T22:48:55.970Z,43.29
2022-07-25T22:51:22.620Z,43.35
2022-07-25T22:53:49.438Z,43.33
2022-07-25T22:56:16.901Z,43.50
2022-07-25T22:58:44.057Z,43.54
2022-07-25T23:01:12.665Z,43.64
2022-07-25T23:03:39.368Z,43.67
2022-07-25T23:06:18.251Z,43.67
2022-07-25T23:08:48.684Z,43.67
2022-07-25T23:11:15.973Z,44.24
2022-07-25T23:13:42.795Z,44.02
2022-07-25T23:16:10.546Z,44.36
2022-07-25T23:18:38.025Z,44.49
2022-07-25T23:21:10.623Z,44.44
2022-07-25T23:23:37.109Z,44.40
2022-07-25T23:26:04.034Z,44.84
2022-07-25T23:28:31.521Z,44.74
2022-07-25T23:30:58.123Z,44.71
2022-07-25T23:33:25.612Z,45.21
2022-07-25T23:35:54.469Z,44.95
2022-07-25T23:38:22.019Z,45.25
2022-07-25T23:40:49.368Z,45.42
2022-07-25T23:43:17.630Z,45.37
2022-07-25T23:46:02.547Z,45.33
2022-07-25T23:48:29.105Z,45.59
2022-07-25T23:50:55.660Z,46.02
2022-07-25T23:53:22.293Z,45.98
2022-07-25T23:55:49.048Z,46.30
2022-07-25T23:58:15.558Z,46.37
